sensor_id;sensor_type;location;lat;lon;timestamp;P1;durP1;ratioP1;P2;durP2;ratioP2
6105;SDS011;3083;51.508;7.966;2023-04-16T00:00:12;209.93;;;28.73;;
6105;SDS011;3083;51.508;7.966;2023-04-16T00:02:39;207.17;;;26.80;;
6105;SDS011;3083;51.508;7.966;2023-04-16T00:05:06;230.83;;;29.60;;
6105;SDS011;3083;51.508;7.966;2023-04-16T00:07:33;169.80;;;24.30;;
6105;SDS011;3083;51.508;7.966;2023-04-16T00:10:00;280.40;;;29.83;;
6105;SDS011;3083;51.508;7.966;2023-04-16T00:12:27;181.83;;;25.73;;
6105;SDS011;3083;51.508;7.966;2023-04-16T00:14:55;224.63;;;28.40;;
6105;SDS011;3083;51.508;7.966;2023-04-16T00:17:22;294.10;;;28.47;;
6105;SDS011;3083;51.508;7.966;2023-04-16T00:19:49;265.37;;;34.27;;
6105;SDS011;3083;51.508;7.966;2023-04-16T00:22:16;222.57;;;29.70;;
6105;SDS011;3083;51.508;7.966;2023-04-16T00:24:43;185.00;;;24.20;;
6105;SDS011;3083;51.508;7.966;2023-04-16T00:27:10;145.33;;;24.07;;
6105;SDS011;3083;51.508;7.966;2023-04-16T00:29:37;207.07;;;27.67;;
6105;SDS011;3083;51.508;7.966;2023-04-16T00:32:05;191.37;;;25.30;;
6105;SDS011;3083;51.508;7.966;2023-04-16T00:34:32;176.60;;;25.67;;
6105;SDS011;3083;51.508;7.966;2023-04-16T00:36:59;253.97;;;26.27;;
6105;SDS011;3083;51.508;7.966;2023-04-16T00:39:26;234.17;;;29.77;;
6105;SDS011;3083;51.508;7.966;2023-04-16T00:41:53;258.20;;;31.90;;
6105;SDS011;3083;51.508;7.966;2023-04-16T00:44:20;164.80;;;25.47;;
6105;SDS011;3083;51.508;7.966;2023-04-16T00:46:47;245.77;;;28.40;;
6105;SDS011;3083;51.508;7.966;2023-04-16T00:49:15;174.33;;;23.77;;
6105;SDS011;3083;51.508;7.966;2023-04-16T00:51:42;227.93;;;26.50;;
6105;SDS011;3083;51.508;7.966;2023-04-16T00:54:09;269.43;;;27.90;;
6105;SDS011;3083;51.508;7.966;2023-04-16T00:56:36;157.20;;;22.87;;
6105;SDS011;3083;51.508;7.966;2023-04-16T00:59:03;260.07;;;26.33;;
6105;SDS011;3083;51.508;7.966;2023-04-16T01:01:30;140.77;;;22.67;;
6105;SDS011;3083;51.508;7.966;2023-04-16T01:03:57;190.67;;;22.33;;
6105;SDS011;3083;51.508;7.966;2023-04-16T01:06:26;190.20;;;22.60;;
6105;SDS011;3083;51.508;7.966;2023-04-16T01:08:52;131.00;;;19.80;;
6105;SDS011;3083;51.508;7.966;2023-04-16T01:11:19;95.53;;;17.93;;
6105;SDS011;3083;51.508;7.966;2023-04-16T01:13:46;228.70;;;24.80;;
6105;SDS011;3083;51.508;7.966;2023-04-16T01:16:13;236.90;;;24.70;;
6105;SDS011;3083;51.508;7.966;2023-04-16T01:18:40;163.17;;;23.40;;
6105;SDS011;3083;51.508;7.966;2023-04-16T01:21:08;249.60;;;26.53;;
6105;SDS011;3083;51.508;7.966;2023-04-16T01:23:35;194.20;;;23.77;;
6105;SDS011;3083;51.508;7.966;2023-04-16T01:26:02;161.13;;;23.37;;
6105;SDS011;3083;51.508;7.966;2023-04-16T01:28:29;252.37;;;26.93;;
6105;SDS011;3083;51.508;7.966;2023-04-16T01:30:56;228.17;;;28.60;;
6105;SDS011;3083;51.508;7.966;2023-04-16T01:33:23;154.27;;;21.47;;
6105;SDS011;3083;51.508;7.966;2023-04-16T01:35:50;233.80;;;25.27;;
6105;SDS011;3083;51.508;7.966;2023-04-16T01:38:18;175.33;;;25.10;;
6105;SDS011;3083;51.508;7.966;2023-04-16T01:40:45;251.13;;;27.57;;
6105;SDS011;3083;51.508;7.966;2023-04-16T01:43:12;179.00;;;22.50;;
6105;SDS011;3083;51.508;7.966;2023-04-16T01:45:39;188.33;;;27.00;;
6105;SDS011;3083;51.508;7.966;2023-04-16T01:48:06;162.77;;;21.30;;
6105;SDS011;3083;51.508;7.966;2023-04-16T01:50:33;294.10;;;31.50;;
6105;SDS011;3083;51.508;7.966;2023-04-16T01:53:00;276.27;;;27.33;;
6105;SDS011;3083;51.508;7.966;2023-04-16T01:55:30;195.77;;;24.80;;
6105;SDS011;3083;51.508;7.966;2023-04-16T01:57:57;288.07;;;28.87;;
6105;SDS011;3083;51.508;7.966;2023-04-16T02:00:24;208.90;;;23.80;;
6105;SDS011;3083;51.508;7.966;2023-04-16T02:02:51;333.03;;;30.23;;
6105;SDS011;3083;51.508;7.966;2023-04-16T02:05:18;188.27;;;25.60;;
6105;SDS011;3083;51.508;7.966;2023-04-16T02:07:45;188.30;;;24.40;;
6105;SDS011;3083;51.508;7.966;2023-04-16T02:10:12;214.10;;;26.77;;
6105;SDS011;3083;51.508;7.966;2023-04-16T02:12:40;215.13;;;26.77;;
6105;SDS011;3083;51.508;7.966;2023-04-16T02:15:07;353.47;;;34.10;;
6105;SDS011;3083;51.508;7.966;2023-04-16T02:17:35;197.30;;;29.07;;
6105;SDS011;3083;51.508;7.966;2023-04-16T02:20:02;203.80;;;26.20;;
6105;SDS011;3083;51.508;7.966;2023-04-16T02:22:32;203.73;;;25.30;;
6105;SDS011;3083;51.508;7.966;2023-04-16T02:24:58;237.67;;;27.57;;
6105;SDS011;3083;51.508;7.966;2023-04-16T02:27:26;328.67;;;32.70;;
6105;SDS011;3083;51.508;7.966;2023-04-16T02:29:54;228.97;;;28.40;;
6105;SDS011;3083;51.508;7.966;2023-04-16T02:32:21;122.87;;;20.70;;
6105;SDS011;3083;51.508;7.966;2023-04-16T02:34:48;285.73;;;34.07;;
6105;SDS011;3083;51.508;7.966;2023-04-16T02:37:15;102.60;;;21.93;;
6105;SDS011;3083;51.508;7.966;2023-04-16T02:39:41;209.63;;;28.10;;
6105;SDS011;3083;51.508;7.966;2023-04-16T02:42:09;165.70;;;22.73;;
6105;SDS011;3083;51.508;7.966;2023-04-16T02:44:36;170.33;;;25.40;;
6105;SDS011;3083;51.508;7.966;2023-04-16T02:47:04;104.87;;;22.97;;
6105;SDS011;3083;51.508;7.966;2023-04-16T02:49:31;166.00;;;24.53;;
6105;SDS011;3083;51.508;7.966;2023-04-16T02:51:59;141.97;;;26.03;;
6105;SDS011;3083;51.508;7.966;2023-04-16T02:54:26;145.87;;;23.57;;
6105;SDS011;3083;51.508;7.966;2023-04-16T02:56:53;202.97;;;27.47;;
6105;SDS011;3083;51.508;7.966;2023-04-16T02:59:20;247.20;;;30.83;;
6105;SDS011;3083;51.508;7.966;2023-04-16T03:01:47;218.20;;;28.80;;
6105;SDS011;3083;51.508;7.966;2023-04-16T03:04:16;187.47;;;26.77;;
6105;SDS011;3083;51.508;7.966;2023-04-16T03:06:43;155.87;;;26.27;;
6105;SDS011;3083;51.508;7.966;2023-04-16T03:09:10;98.10;;;24.30;;
6105;SDS011;3083;51.508;7.966;2023-04-16T03:11:37;74.57;;;23.47;;
6105;SDS011;3083;51.508;7.966;2023-04-16T03:14:04;85.30;;;24.60;;
6105;SDS011;3083;51.508;7.966;2023-04-16T03:16:31;83.73;;;24.13;;
6105;SDS011;3083;51.508;7.966;2023-04-16T03:18:57;93.73;;;24.10;;
6105;SDS011;3083;51.508;7.966;2023-04-16T03:21:26;100.07;;;23.80;;
6105;SDS011;3083;51.508;7.966;2023-04-16T03:23:53;94.53;;;25.10;;
6105;SDS011;3083;51.508;7.966;2023-04-16T03:26:20;94.93;;;24.63;;
6105;SDS011;3083;51.508;7.966;2023-04-16T03:28:47;87.03;;;23.40;;
6105;SDS011;3083;51.508;7.966;2023-04-16T03:31:13;92.37;;;25.43;;
6105;SDS011;3083;51.508;7.966;2023-04-16T03:33:40;79.80;;;24.40;;
6105;SDS011;3083;51.508;7.966;2023-04-16T03:36:08;83.20;;;24.93;;
6105;SDS011;3083;51.508;7.966;2023-04-16T03:38:36;90.33;;;23.43;;
6105;SDS011;3083;51.508;7.966;2023-04-16T03:41:03;94.63;;;26.63;;
6105;SDS011;3083;51.508;7.966;2023-04-16T03:43:30;96.20;;;26.27;;
6105;SDS011;3083;51.508;7.966;2023-04-16T03:45:57;87.00;;;24.77;;
6105;SDS011;3083;51.508;7.966;2023-04-16T03:48:24;76.33;;;24.33;;
6105;SDS011;3083;51.508;7.966;2023-04-16T03:50:50;88.80;;;25.10;;
6105;SDS011;3083;51.508;7.966;2023-04-16T03:53:17;80.83;;;25.10;;
6105;SDS011;3083;51.508;7.966;2023-04-16T03:55:48;114.37;;;29.07;;
6105;SDS011;3083;51.508;7.966;2023-04-16T03:58:15;124.33;;;29.93;;
6105;SDS011;3083;51.508;7.966;2023-04-16T04:00:42;94.63;;;25.07;;
6105;SDS011;3083;51.508;7.966;2023-04-16T04:03:10;96.90;;;26.20;;
6105;SDS011;3083;51.508;7.966;2023-04-16T04:05:37;111.20;;;27.03;;
6105;SDS011;3083;51.508;7.966;2023-04-16T04:08:05;113.30;;;30.73;;
6105;SDS011;3083;51.508;7.966;2023-04-16T04:10:32;94.80;;;27.53;;
6105;SDS011;3083;51.508;7.966;2023-04-16T04:13:01;99.70;;;28.43;;
6105;SDS011;3083;51.508;7.966;2023-04-16T04:15:29;114.53;;;28.80;;
6105;SDS011;3083;51.508;7.966;2023-04-16T04:17:56;106.47;;;28.60;;
6105;SDS011;3083;51.508;7.966;2023-04-16T04:20:23;117.33;;;29.07;;
6105;SDS011;3083;51.508;7.966;2023-04-16T04:22:50;98.30;;;29.67;;
6105;SDS011;3083;51.508;7.966;2023-04-16T04:25:17;103.87;;;30.17;;
6105;SDS011;3083;51.508;7.966;2023-04-16T04:27:44;130.43;;;29.53;;
6105;SDS011;3083;51.508;7.966;2023-04-16T04:30:12;106.13;;;28.60;;
6105;SDS011;3083;51.508;7.966;2023-04-16T04:32:39;107.40;;;30.53;;
6105;SDS011;3083;51.508;7.966;2023-04-16T04:35:06;105.83;;;27.87;;
6105;SDS011;3083;51.508;7.966;2023-04-16T04:37:33;93.50;;;27.80;;
6105;SDS011;3083;51.508;7.966;2023-04-16T04:40:00;104.33;;;29.03;;
6105;SDS011;3083;51.508;7.966;2023-04-16T04:42:27;115.63;;;28.70;;
6105;SDS011;3083;51.508;7.966;2023-04-16T04:44:54;108.43;;;30.10;;
6105;SDS011;3083;51.508;7.966;2023-04-16T04:47:22;116.17;;;28.50;;
6105;SDS011;3083;51.508;7.966;2023-04-16T04:49:49;94.77;;;28.27;;
6105;SDS011;3083;51.508;7.966;2023-04-16T04:52:16;101.70;;;27.33;;
6105;SDS011;3083;51.508;7.966;2023-04-16T04:54:44;115.07;;;30.60;;
6105;SDS011;3083;51.508;7.966;2023-04-16T04:57:11;117.33;;;30.97;;
6105;SDS011;3083;51.508;7.966;2023-04-16T04:59:38;119.10;;;30.40;;
6105;SDS011;3083;51.508;7.966;2023-04-16T05:02:05;122.67;;;32.70;;
6105;SDS011;3083;51.508;7.966;2023-04-16T05:04:34;127.53;;;33.57;;
6105;SDS011;3083;51.508;7.966;2023-04-16T05:07:01;127.07;;;31.20;;
6105;SDS011;3083;51.508;7.966;2023-04-16T05:09:28;122.07;;;30.93;;
6105;SDS011;3083;51.508;7.966;2023-04-16T05:11:54;101.10;;;31.63;;
6105;SDS011;3083;51.508;7.966;2023-04-16T05:14:22;110.63;;;30.90;;
6105;SDS011;3083;51.508;7.966;2023-04-16T05:16:49;105.00;;;31.53;;
6105;SDS011;3083;51.508;7.966;2023-04-16T05:19:16;128.40;;;33.70;;
6105;SDS011;3083;51.508;7.966;2023-04-16T05:21:44;123.30;;;29.80;;
6105;SDS011;3083;51.508;7.966;2023-04-16T05:24:11;113.67;;;32.33;;
6105;SDS011;3083;51.508;7.966;2023-04-16T05:26:38;128.17;;;34.00;;
6105;SDS011;3083;51.508;7.966;2023-04-16T05:29:04;113.27;;;34.40;;
6105;SDS011;3083;51.508;7.966;2023-04-16T05:31:31;98.23;;;31.97;;
6105;SDS011;3083;51.508;7.966;2023-04-16T05:33:58;106.80;;;31.70;;
6105;SDS011;3083;51.508;7.966;2023-04-16T05:36:25;115.60;;;32.30;;
6105;SDS011;3083;51.508;7.966;2023-04-16T05:38:53;114.53;;;30.17;;
6105;SDS011;3083;51.508;7.966;2023-04-16T05:41:20;108.27;;;31.43;;
6105;SDS011;3083;51.508;7.966;2023-04-16T05:43:48;107.10;;;33.20;;
6105;SDS011;3083;51.508;7.966;2023-04-16T05:46:15;131.47;;;35.87;;
6105;SDS011;3083;51.508;7.966;2023-04-16T05:48:42;143.53;;;34.47;;
6105;SDS011;3083;51.508;7.966;2023-04-16T05:51:08;115.97;;;32.80;;
6105;SDS011;3083;51.508;7.966;2023-04-16T05:53:35;120.13;;;36.00;;
6105;SDS011;3083;51.508;7.966;2023-04-16T05:56:04;130.10;;;32.57;;
6105;SDS011;3083;51.508;7.966;2023-04-16T05:58:31;132.53;;;34.00;;
6105;SDS011;3083;51.508;7.966;2023-04-16T06:00:58;163.43;;;37.30;;
6105;SDS011;3083;51.508;7.966;2023-04-16T06:03:26;142.10;;;38.10;;
6105;SDS011;3083;51.508;7.966;2023-04-16T06:05:53;129.87;;;34.37;;
6105;SDS011;3083;51.508;7.966;2023-04-16T06:08:20;120.27;;;32.03;;
6105;SDS011;3083;51.508;7.966;2023-04-16T06:10:47;119.47;;;33.90;;
6105;SDS011;3083;51.508;7.966;2023-04-16T06:13:16;122.50;;;34.00;;
6105;SDS011;3083;51.508;7.966;2023-04-16T06:15:43;117.57;;;34.37;;
6105;SDS011;3083;51.508;7.966;2023-04-16T06:18:10;123.07;;;36.43;;
6105;SDS011;3083;51.508;7.966;2023-04-16T06:20:37;117.50;;;34.90;;
6105;SDS011;3083;51.508;7.966;2023-04-16T06:23:04;103.23;;;32.17;;
6105;SDS011;3083;51.508;7.966;2023-04-16T06:25:31;116.03;;;33.70;;
6105;SDS011;3083;51.508;7.966;2023-04-16T06:27:58;107.67;;;31.50;;
6105;SDS011;3083;51.508;7.966;2023-04-16T06:30:26;96.73;;;32.60;;
6105;SDS011;3083;51.508;7.966;2023-04-16T06:32:53;108.07;;;32.03;;
6105;SDS011;3083;51.508;7.966;2023-04-16T06:35:20;101.80;;;31.70;;
6105;SDS011;3083;51.508;7.966;2023-04-16T06:37:47;118.17;;;33.90;;
6105;SDS011;3083;51.508;7.966;2023-04-16T06:40:14;133.63;;;34.40;;
6105;SDS011;3083;51.508;7.966;2023-04-16T06:42:41;93.77;;;30.40;;
6105;SDS011;3083;51.508;7.966;2023-04-16T06:45:08;118.23;;;33.70;;
6105;SDS011;3083;51.508;7.966;2023-04-16T06:47:37;129.10;;;34.27;;
6105;SDS011;3083;51.508;7.966;2023-04-16T06:50:04;125.50;;;34.50;;
6105;SDS011;3083;51.508;7.966;2023-04-16T06:52:32;98.23;;;31.27;;
6105;SDS011;3083;51.508;7.966;2023-04-16T06:54:58;123.20;;;33.67;;
6105;SDS011;3083;51.508;7.966;2023-04-16T06:57:25;122.03;;;33.67;;
6105;SDS011;3083;51.508;7.966;2023-04-16T06:59:52;116.67;;;34.60;;
6105;SDS011;3083;51.508;7.966;2023-04-16T07:02:19;129.30;;;34.90;;
6105;SDS011;3083;51.508;7.966;2023-04-16T07:04:47;109.63;;;33.60;;
6105;SDS011;3083;51.508;7.966;2023-04-16T07:07:16;103.90;;;32.93;;
6105;SDS011;3083;51.508;7.966;2023-04-16T07:09:43;124.37;;;34.57;;
6105;SDS011;3083;51.508;7.966;2023-04-16T07:12:10;117.83;;;33.10;;
6105;SDS011;3083;51.508;7.966;2023-04-16T07:14:37;124.10;;;33.20;;
6105;SDS011;3083;51.508;7.966;2023-04-16T07:17:04;126.97;;;33.33;;
6105;SDS011;3083;51.508;7.966;2023-04-16T07:19:31;112.27;;;32.70;;
6105;SDS011;3083;51.508;7.966;2023-04-16T07:21:59;122.53;;;33.67;;
6105;SDS011;3083;51.508;7.966;2023-04-16T07:24:26;123.60;;;34.93;;
6105;SDS011;3083;51.508;7.966;2023-04-16T07:26:53;126.87;;;34.50;;
6105;SDS011;3083;51.508;7.966;2023-04-16T07:29:20;130.03;;;37.17;;
6105;SDS011;3083;51.508;7.966;2023-04-16T07:31:47;112.03;;;33.07;;
6105;SDS011;3083;51.508;7.966;2023-04-16T07:34:15;125.40;;;34.73;;
6105;SDS011;3083;51.508;7.966;2023-04-16T07:36:42;141.37;;;35.97;;
6105;SDS011;3083;51.508;7.966;2023-04-16T07:39:10;135.37;;;35.17;;
6105;SDS011;3083;51.508;7.966;2023-04-16T07:41:37;124.13;;;34.60;;
6105;SDS011;3083;51.508;7.966;2023-04-16T07:44:05;161.97;;;36.67;;
6105;SDS011;3083;51.508;7.966;2023-04-16T07:46:32;135.87;;;38.03;;
6105;SDS011;3083;51.508;7.966;2023-04-16T07:48:59;142.57;;;38.37;;
6105;SDS011;3083;51.508;7.966;2023-04-16T07:51:28;143.17;;;37.23;;
6105;SDS011;3083;51.508;7.966;2023-04-16T07:53:55;143.97;;;37.30;;
6105;SDS011;3083;51.508;7.966;2023-04-16T07:56:23;136.53;;;36.73;;
6105;SDS011;3083;51.508;7.966;2023-04-16T07:58:50;156.77;;;39.10;;
6105;SDS011;3083;51.508;7.966;2023-04-16T08:01:17;134.03;;;38.23;;
6105;SDS011;3083;51.508;7.966;2023-04-16T08:03:45;154.90;;;40.17;;
6105;SDS011;3083;51.508;7.966;2023-04-16T08:06:12;142.37;;;35.97;;
6105;SDS011;3083;51.508;7.966;2023-04-16T08:08:39;146.20;;;37.40;;
6105;SDS011;3083;51.508;7.966;2023-04-16T08:11:06;139.93;;;37.27;;
6105;SDS011;3083;51.508;7.966;2023-04-16T08:13:34;138.60;;;36.57;;
6105;SDS011;3083;51.508;7.966;2023-04-16T08:16:02;125.90;;;34.97;;
6105;SDS011;3083;51.508;7.966;2023-04-16T08:18:29;119.37;;;36.87;;
6105;SDS011;3083;51.508;7.966;2023-04-16T08:20:56;131.60;;;36.20;;
6105;SDS011;3083;51.508;7.966;2023-04-16T08:23:23;125.37;;;36.10;;
6105;SDS011;3083;51.508;7.966;2023-04-16T08:25:50;118.23;;;34.00;;
6105;SDS011;3083;51.508;7.966;2023-04-16T08:28:16;141.80;;;36.73;;
6105;SDS011;3083;51.508;7.966;2023-04-16T08:30:45;126.07;;;35.67;;
6105;SDS011;3083;51.508;7.966;2023-04-16T08:33:15;144.30;;;37.53;;
6105;SDS011;3083;51.508;7.966;2023-04-16T08:35:42;141.97;;;39.50;;
6105;SDS011;3083;51.508;7.966;2023-04-16T08:38:08;141.30;;;40.47;;
6105;SDS011;3083;51.508;7.966;2023-04-16T08:40:36;126.13;;;36.03;;
6105;SDS011;3083;51.508;7.966;2023-04-16T08:43:07;152.57;;;38.40;;
6105;SDS011;3083;51.508;7.966;2023-04-16T08:45:37;127.00;;;34.40;;
6105;SDS011;3083;51.508;7.966;2023-04-16T08:48:08;135.20;;;38.40;;
6105;SDS011;3083;51.508;7.966;2023-04-16T08:50:37;123.67;;;37.10;;
6105;SDS011;3083;51.508;7.966;2023-04-16T08:53:06;136.33;;;36.87;;
6105;SDS011;3083;51.508;7.966;2023-04-16T08:55:38;136.83;;;37.73;;
6105;SDS011;3083;51.508;7.966;2023-04-16T08:58:10;121.20;;;37.67;;
6105;SDS011;3083;51.508;7.966;2023-04-16T09:00:39;131.13;;;36.97;;
6105;SDS011;3083;51.508;7.966;2023-04-16T09:03:08;158.10;;;45.37;;
6105;SDS011;3083;51.508;7.966;2023-04-16T09:05:35;175.27;;;44.50;;
6105;SDS011;3083;51.508;7.966;2023-04-16T09:08:04;171.23;;;42.67;;
6105;SDS011;3083;51.508;7.966;2023-04-16T09:10:31;166.60;;;42.90;;
6105;SDS011;3083;51.508;7.966;2023-04-16T09:12:59;163.33;;;41.50;;
6105;SDS011;3083;51.508;7.966;2023-04-16T09:15:26;151.87;;;41.20;;
6105;SDS011;3083;51.508;7.966;2023-04-16T09:17:53;168.03;;;43.10;;
6105;SDS011;3083;51.508;7.966;2023-04-16T09:20:23;139.70;;;41.30;;
6105;SDS011;3083;51.508;7.966;2023-04-16T09:22:50;159.07;;;41.40;;
6105;SDS011;3083;51.508;7.966;2023-04-16T09:25:17;151.57;;;42.77;;
6105;SDS011;3083;51.508;7.966;2023-04-16T09:27:49;145.23;;;42.40;;
6105;SDS011;3083;51.508;7.966;2023-04-16T09:30:22;147.63;;;40.90;;
6105;SDS011;3083;51.508;7.966;2023-04-16T09:32:51;144.43;;;42.87;;
6105;SDS011;3083;51.508;7.966;2023-04-16T09:35:44;133.23;;;37.40;;
6105;SDS011;3083;51.508;7.966;2023-04-16T09:38:12;135.77;;;37.97;;
6105;SDS011;3083;51.508;7.966;2023-04-16T09:40:39;129.70;;;37.87;;
6105;SDS011;3083;51.508;7.966;2023-04-16T09:43:08;114.10;;;35.87;;
6105;SDS011;3083;51.508;7.966;2023-04-16T09:45:46;124.93;;;36.60;;
6105;SDS011;3083;51.508;7.966;2023-04-16T09:48:15;130.30;;;38.57;;
6105;SDS011;3083;51.508;7.966;2023-04-16T09:50:54;118.43;;;37.17;;
6105;SDS011;3083;51.508;7.966;2023-04-16T09:53:24;133.13;;;38.47;;
6105;SDS011;3083;51.508;7.966;2023-04-16T09:55:54;121.00;;;36.37;;
6105;SDS011;3083;51.508;7.966;2023-04-16T09:58:22;144.90;;;38.00;;
6105;SDS011;3083;51.508;7.966;2023-04-16T10:00:54;118.07;;;37.07;;
6105;SDS011;3083;51.508;7.966;2023-04-16T10:03:27;126.50;;;36.87;;
6105;SDS011;3083;51.508;7.966;2023-04-16T10:05:59;143.73;;;39.70;;
6105;SDS011;3083;51.508;7.966;2023-04-16T10:08:27;132.57;;;38.60;;
6105;SDS011;3083;51.508;7.966;2023-04-16T10:10:54;127.20;;;37.40;;
6105;SDS011;3083;51.508;7.966;2023-04-16T10:13:21;113.50;;;34.20;;
6105;SDS011;3083;51.508;7.966;2023-04-16T10:15:51;128.20;;;37.70;;
6105;SDS011;3083;51.508;7.966;2023-04-16T10:18:21;102.80;;;35.97;;
6105;SDS011;3083;51.508;7.966;2023-04-16T10:20:48;107.90;;;35.90;;
6105;SDS011;3083;51.508;7.966;2023-04-16T10:23:17;108.90;;;33.90;;
6105;SDS011;3083;51.508;7.966;2023-04-16T10:25:45;92.10;;;32.73;;
6105;SDS011;3083;51.508;7.966;2023-04-16T10:28:14;93.17;;;31.57;;
6105;SDS011;3083;51.508;7.966;2023-04-16T10:30:41;86.83;;;30.20;;
6105;SDS011;3083;51.508;7.966;2023-04-16T10:33:16;86.20;;;31.77;;
6105;SDS011;3083;51.508;7.966;2023-04-16T10:35:48;85.73;;;31.67;;
6105;SDS011;3083;51.508;7.966;2023-04-16T10:38:24;76.60;;;31.70;;
6105;SDS011;3083;51.508;7.966;2023-04-16T10:40:59;83.97;;;32.80;;
6105;SDS011;3083;51.508;7.966;2023-04-16T10:43:28;97.50;;;32.77;;
6105;SDS011;3083;51.508;7.966;2023-04-16T10:45:56;68.73;;;30.20;;
6105;SDS011;3083;51.508;7.966;2023-04-16T10:48:23;69.50;;;30.50;;
6105;SDS011;3083;51.508;7.966;2023-04-16T10:50:53;59.13;;;25.90;;
6105;SDS011;3083;51.508;7.966;2023-04-16T10:53:23;56.43;;;26.27;;
6105;SDS011;3083;51.508;7.966;2023-04-16T10:55:58;50.07;;;24.20;;
6105;SDS011;3083;51.508;7.966;2023-04-16T10:58:37;49.00;;;23.33;;
6105;SDS011;3083;51.508;7.966;2023-04-16T11:01:10;45.53;;;23.13;;
6105;SDS011;3083;51.508;7.966;2023-04-16T11:03:42;45.63;;;22.30;;
6105;SDS011;3083;51.508;7.966;2023-04-16T11:06:12;42.03;;;21.00;;
6105;SDS011;3083;51.508;7.966;2023-04-16T11:08:42;44.93;;;22.60;;
6105;SDS011;3083;51.508;7.966;2023-04-16T11:11:10;43.47;;;21.93;;
6105;SDS011;3083;51.508;7.966;2023-04-16T11:13:37;44.47;;;22.70;;
6105;SDS011;3083;51.508;7.966;2023-04-16T11:16:07;48.00;;;24.27;;
6105;SDS011;3083;51.508;7.966;2023-04-16T11:18:35;44.50;;;23.43;;
6105;SDS011;3083;51.508;7.966;2023-04-16T11:21:06;44.53;;;22.17;;
6105;SDS011;3083;51.508;7.966;2023-04-16T11:23:45;41.97;;;22.50;;
6105;SDS011;3083;51.508;7.966;2023-04-16T11:26:23;41.13;;;20.17;;
6105;SDS011;3083;51.508;7.966;2023-04-16T11:28:51;43.83;;;21.57;;
6105;SDS011;3083;51.508;7.966;2023-04-16T11:31:19;42.57;;;21.20;;
6105;SDS011;3083;51.508;7.966;2023-04-16T11:33:47;41.57;;;20.83;;
6105;SDS011;3083;51.508;7.966;2023-04-16T11:36:14;42.40;;;21.67;;
6105;SDS011;3083;51.508;7.966;2023-04-16T11:38:41;41.03;;;20.17;;
6105;SDS011;3083;51.508;7.966;2023-04-16T11:41:09;41.60;;;20.70;;
6105;SDS011;3083;51.508;7.966;2023-04-16T11:43:36;40.13;;;20.90;;
6105;SDS011;3083;51.508;7.966;2023-04-16T11:46:04;41.00;;;21.77;;
6105;SDS011;3083;51.508;7.966;2023-04-16T11:48:44;41.03;;;20.63;;
6105;SDS011;3083;51.508;7.966;2023-04-16T11:51:12;42.50;;;20.60;;
6105;SDS011;3083;51.508;7.966;2023-04-16T11:53:44;39.53;;;20.07;;
6105;SDS011;3083;51.508;7.966;2023-04-16T11:56:13;41.90;;;20.83;;
6105;SDS011;3083;51.508;7.966;2023-04-16T11:58:41;39.90;;;20.67;;
6105;SDS011;3083;51.508;7.966;2023-04-16T12:01:08;44.20;;;19.50;;
6105;SDS011;3083;51.508;7.966;2023-04-16T12:03:37;40.70;;;20.47;;
6105;SDS011;3083;51.508;7.966;2023-04-16T12:06:08;39.97;;;20.17;;
6105;SDS011;3083;51.508;7.966;2023-04-16T12:08:35;37.47;;;19.30;;
6105;SDS011;3083;51.508;7.966;2023-04-16T12:11:03;40.33;;;20.27;;
6105;SDS011;3083;51.508;7.966;2023-04-16T12:13:31;39.50;;;20.83;;
6105;SDS011;3083;51.508;7.966;2023-04-16T12:16:11;40.90;;;20.50;;
6105;SDS011;3083;51.508;7.966;2023-04-16T12:18:57;43.77;;;20.50;;
6105;SDS011;3083;51.508;7.966;2023-04-16T12:21:34;39.70;;;20.90;;
6105;SDS011;3083;51.508;7.966;2023-04-16T12:24:02;42.27;;;21.20;;
6105;SDS011;3083;51.508;7.966;2023-04-16T12:26:34;42.33;;;20.90;;
6105;SDS011;3083;51.508;7.966;2023-04-16T12:29:14;41.70;;;19.97;;
6105;SDS011;3083;51.508;7.966;2023-04-16T12:31:46;40.80;;;19.30;;
6105;SDS011;3083;51.508;7.966;2023-04-16T12:34:14;40.07;;;22.10;;
6105;SDS011;3083;51.508;7.966;2023-04-16T12:36:42;38.60;;;20.30;;
6105;SDS011;3083;51.508;7.966;2023-04-16T12:39:10;43.17;;;20.80;;
6105;SDS011;3083;51.508;7.966;2023-04-16T12:41:38;38.57;;;20.77;;
6105;SDS011;3083;51.508;7.966;2023-04-16T12:44:06;40.33;;;20.47;;
6105;SDS011;3083;51.508;7.966;2023-04-16T12:46:37;39.07;;;20.37;;
6105;SDS011;3083;51.508;7.966;2023-04-16T12:49:05;42.50;;;20.00;;
6105;SDS011;3083;51.508;7.966;2023-04-16T12:51:33;40.50;;;20.43;;
6105;SDS011;3083;51.508;7.966;2023-04-16T12:54:00;38.40;;;20.10;;
6105;SDS011;3083;51.508;7.966;2023-04-16T12:56:28;41.03;;;20.57;;
6105;SDS011;3083;51.508;7.966;2023-04-16T12:58:56;36.43;;;19.00;;
6105;SDS011;3083;51.508;7.966;2023-04-16T13:01:23;38.83;;;19.47;;
6105;SDS011;3083;51.508;7.966;2023-04-16T13:03:51;38.97;;;19.60;;
6105;SDS011;3083;51.508;7.966;2023-04-16T13:06:18;38.50;;;18.87;;
6105;SDS011;3083;51.508;7.966;2023-04-16T13:08:46;40.90;;;20.57;;
6105;SDS011;3083;51.508;7.966;2023-04-16T13:11:13;44.27;;;20.63;;
6105;SDS011;3083;51.508;7.966;2023-04-16T13:13:40;34.07;;;19.00;;
6105;SDS011;3083;51.508;7.966;2023-04-16T13:16:06;39.40;;;19.10;;
6105;SDS011;3083;51.508;7.966;2023-04-16T13:18:34;40.50;;;19.97;;
6105;SDS011;3083;51.508;7.966;2023-04-16T13:21:03;35.70;;;19.17;;
6105;SDS011;3083;51.508;7.966;2023-04-16T13:23:31;38.80;;;19.87;;
6105;SDS011;3083;51.508;7.966;2023-04-16T13:25:58;34.40;;;20.40;;
6105;SDS011;3083;51.508;7.966;2023-04-16T13:28:24;35.13;;;18.40;;
6105;SDS011;3083;51.508;7.966;2023-04-16T13:30:51;35.80;;;19.50;;
6105;SDS011;3083;51.508;7.966;2023-04-16T13:33:19;38.50;;;19.43;;
6105;SDS011;3083;51.508;7.966;2023-04-16T13:35:47;37.57;;;19.50;;
6105;SDS011;3083;51.508;7.966;2023-04-16T13:38:16;38.97;;;18.70;;
6105;SDS011;3083;51.508;7.966;2023-04-16T13:40:43;47.20;;;20.43;;
6105;SDS011;3083;51.508;7.966;2023-04-16T13:43:10;33.80;;;18.37;;
6105;SDS011;3083;51.508;7.966;2023-04-16T13:45:38;42.63;;;21.33;;
6105;SDS011;3083;51.508;7.966;2023-04-16T13:48:05;37.17;;;19.53;;
6105;SDS011;3083;51.508;7.966;2023-04-16T13:50:32;36.23;;;19.43;;
6105;SDS011;3083;51.508;7.966;2023-04-16T13:52:59;34.60;;;19.03;;
6105;SDS011;3083;51.508;7.966;2023-04-16T13:55:28;39.23;;;19.37;;
6105;SDS011;3083;51.508;7.966;2023-04-16T13:57:56;36.33;;;19.40;;
6105;SDS011;3083;51.508;7.966;2023-04-16T14:00:24;40.57;;;19.57;;
6105;SDS011;3083;51.508;7.966;2023-04-16T14:02:51;38.80;;;20.13;;
6105;SDS011;3083;51.508;7.966;2023-04-16T14:05:18;39.23;;;19.47;;
6105;SDS011;3083;51.508;7.966;2023-04-16T14:07:47;35.63;;;19.50;;
6105;SDS011;3083;51.508;7.966;2023-04-16T14:10:14;41.17;;;20.37;;
6105;SDS011;3083;51.508;7.966;2023-04-16T14:12:42;35.60;;;20.20;;
6105;SDS011;3083;51.508;7.966;2023-04-16T14:15:10;35.30;;;18.40;;
6105;SDS011;3083;51.508;7.966;2023-04-16T14:17:38;37.80;;;17.77;;
6105;SDS011;3083;51.508;7.966;2023-04-16T14:20:07;36.50;;;18.70;;
6105;SDS011;3083;51.508;7.966;2023-04-16T14:22:34;35.93;;;17.67;;
6105;SDS011;3083;51.508;7.966;2023-04-16T14:25:01;35.20;;;19.20;;
6105;SDS011;3083;51.508;7.966;2023-04-16T14:27:29;38.03;;;19.70;;
6105;SDS011;3083;51.508;7.966;2023-04-16T14:29:57;32.27;;;17.93;;
6105;SDS011;3083;51.508;7.966;2023-04-16T14:32:25;33.40;;;18.27;;
6105;SDS011;3083;51.508;7.966;2023-04-16T14:34:52;41.40;;;18.43;;
6105;SDS011;3083;51.508;7.966;2023-04-16T14:37:18;34.17;;;18.80;;
6105;SDS011;3083;51.508;7.966;2023-04-16T14:39:45;37.70;;;18.10;;
6105;SDS011;3083;51.508;7.966;2023-04-16T14:42:12;37.50;;;19.37;;